sensor_id;sensor_type;location;lat;lon;timestamp;P1;P2;P0
58740;PMS7003;44512;53.046;18.604;2023-05-14T00:05:08;24;20;15
58740;PMS7003;44512;53.046;18.604;2023-05-14T00:15:36;22;21;15
58740;PMS7003;44512;53.046;18.604;2023-05-14T00:26:04;27;23;16
58740;PMS7003;44512;53.046;18.604;2023-05-14T00:36:33;24;22;17
58740;PMS7003;44512;53.046;18.604;2023-05-14T00:47:01;26;23;17
58740;PMS7003;44512;53.046;18.604;2023-05-14T00:57:29;28;25;17
58740;PMS7003;44512;53.046;18.604;2023-05-14T01:08:03;25;21;17
58740;PMS7003;44512;53.046;18.604;2023-05-14T01:18:27;27;24;19
58740;PMS7003;44512;53.046;18.604;2023-05-14T01:28:54;26;24;17
58740;PMS7003;44512;53.046;18.604;2023-05-14T01:39:23;33;29;20
58740;PMS7003;44512;53.046;18.604;2023-05-14T01:49:51;35;29;20
58740;PMS7003;44512;53.046;18.604;2023-05-14T02:00:20;28;24;18
58740;PMS7003;44512;53.046;18.604;2023-05-14T02:10:48;28;24;18
58740;PMS7003;44512;53.046;18.604;2023-05-14T02:21:16;28;25;18
58740;PMS7003;44512;53.046;18.604;2023-05-14T02:31:45;29;23;17
58740;PMS7003;44512;53.046;18.604;2023-05-14T02:42:13;27;26;19
58740;PMS7003;44512;53.046;18.604;2023-05-14T02:52:42;26;22;17
58740;PMS7003;44512;53.046;18.604;2023-05-14T03:03:10;27;22;18
58740;PMS7003;44512;53.046;18.604;2023-05-14T03:13:38;28;20;16
58740;PMS7003;44512;53.046;18.604;2023-05-14T03:24:07;29;25;18
58740;PMS7003;44512;53.046;18.604;2023-05-14T03:34:35;29;26;18
58740;PMS7003;44512;53.046;18.604;2023-05-14T03:45:04;31;26;18
58740;PMS7003;44512;53.046;18.604;2023-05-14T03:55:32;35;29;20
58740;PMS7003;44512;53.046;18.604;2023-05-14T04:06:01;30;26;18
58740;PMS7003;44512;53.046;18.604;2023-05-14T04:16:29;24;21;18
58740;PMS7003;44512;53.046;18.604;2023-05-14T04:26:57;27;25;18
58740;PMS7003;44512;53.046;18.604;2023-05-14T04:37:26;26;24;18
58740;PMS7003;44512;53.046;18.604;2023-05-14T04:47:54;27;24;18
58740;PMS7003;44512;53.046;18.604;2023-05-14T04:58:23;25;22;15
58740;PMS7003;44512;53.046;18.604;2023-05-14T05:08:51;23;22;16
58740;PMS7003;44512;53.046;18.604;2023-05-14T05:19:19;22;18;14
58740;PMS7003;44512;53.046;18.604;2023-05-14T05:29:48;18;16;12
58740;PMS7003;44512;53.046;18.604;2023-05-14T05:40:16;14;13;10
58740;PMS7003;44512;53.046;18.604;2023-05-14T05:50:48;15;14;11
58740;PMS7003;44512;53.046;18.604;2023-05-14T06:01:13;18;14;11
58740;PMS7003;44512;53.046;18.604;2023-05-14T06:11:41;15;14;11
58740;PMS7003;44512;53.046;18.604;2023-05-14T06:22:10;13;12;9
58740;PMS7003;44512;53.046;18.604;2023-05-14T06:32:38;16;13;11
58740;PMS7003;44512;53.046;18.604;2023-05-14T06:43:06;13;12;10
58740;PMS7003;44512;53.046;18.604;2023-05-14T06:53:35;11;11;8
58740;PMS7003;44512;53.046;18.604;2023-05-14T07:04:03;9;9;7
58740;PMS7003;44512;53.046;18.604;2023-05-14T07:14:32;12;7;5
58740;PMS7003;44512;53.046;18.604;2023-05-14T07:25:00;5;5;5
58740;PMS7003;44512;53.046;18.604;2023-05-14T07:35:28;8;7;6
58740;PMS7003;44512;53.046;18.604;2023-05-14T07:45:58;6;5;5
58740;PMS7003;44512;53.046;18.604;2023-05-14T07:56:25;7;7;6
58740;PMS7003;44512;53.046;18.604;2023-05-14T08:06:53;8;7;5
58740;PMS7003;44512;53.046;18.604;2023-05-14T08:17:22;7;5;4
58740;PMS7003;44512;53.046;18.604;2023-05-14T08:27:50;6;6;5
58740;PMS7003;44512;53.046;18.604;2023-05-14T08:38:18;7;7;6
58740;PMS7003;44512;53.046;18.604;2023-05-14T08:48:47;7;6;5
58740;PMS7003;44512;53.046;18.604;2023-05-14T08:59:15;6;5;5
58740;PMS7003;44512;53.046;18.604;2023-05-14T09:09:43;7;7;5
58740;PMS7003;44512;53.046;18.604;2023-05-14T09:20:12;7;7;6
58740;PMS7003;44512;53.046;18.604;2023-05-14T09:30:40;7;7;5
58740;PMS7003;44512;53.046;18.604;2023-05-14T09:41:09;7;6;5
58740;PMS7003;44512;53.046;18.604;2023-05-14T09:51:37;7;5;4
58740;PMS7003;44512;53.046;18.604;2023-05-14T10:02:05;6;6;5
58740;PMS7003;44512;53.046;18.604;2023-05-14T10:12:36;6;5;5
58740;PMS7003;44512;53.046;18.604;2023-05-14T10:23:02;7;6;5
58740;PMS7003;44512;53.046;18.604;2023-05-14T10:33:30;7;6;5
58740;PMS7003;44512;53.046;18.604;2023-05-14T10:43:59;6;5;4
58740;PMS7003;44512;53.046;18.604;2023-05-14T10:54:27;5;5;4
58740;PMS7003;44512;53.046;18.604;2023-05-14T11:04:59;7;7;5
58740;PMS7003;44512;53.046;18.604;2023-05-14T11:15:24;7;6;5
58740;PMS7003;44512;53.046;18.604;2023-05-14T11:25:52;5;5;5
58740;PMS7003;44512;53.046;18.604;2023-05-14T11:36:20;7;6;5
58740;PMS7003;44512;53.046;18.604;2023-05-14T11:46:53;6;6;5
58740;PMS7003;44512;53.046;18.604;2023-05-14T11:57:18;7;7;5
58740;PMS7003;44512;53.046;18.604;2023-05-14T12:07:46;4;4;3
58740;PMS7003;44512;53.046;18.604;2023-05-14T12:18:15;9;8;7
58740;PMS7003;44512;53.046;18.604;2023-05-14T12:28:43;7;7;6
58740;PMS7003;44512;53.046;18.604;2023-05-14T12:39:10;7;7;6
58740;PMS7003;44512;53.046;18.604;2023-05-14T12:49:39;6;6;5
58740;PMS7003;44512;53.046;18.604;2023-05-14T13:00:08;8;7;5
58740;PMS7003;44512;53.046;18.604;2023-05-14T13:10:35;6;6;5
58740;PMS7003;44512;53.046;18.604;2023-05-14T13:21:04;7;6;6
58740;PMS7003;44512;53.046;18.604;2023-05-14T13:31:32;8;7;6
58740;PMS7003;44512;53.046;18.604;2023-05-14T13:42:01;6;6;5
58740;PMS7003;44512;53.046;18.604;2023-05-14T13:52:29;5;5;5
58740;PMS7003;44512;53.046;18.604;2023-05-14T14:02:57;8;6;5
58740;PMS7003;44512;53.046;18.604;2023-05-14T14:13:26;14;13;9
58740;PMS7003;44512;53.046;18.604;2023-05-14T14:23:54;6;5;5
58740;PMS7003;44512;53.046;18.604;2023-05-14T14:34:23;6;5;5
58740;PMS7003;44512;53.046;18.604;2023-05-14T14:49:55;6;6;6
58740;PMS7003;44512;53.046;18.604;2023-05-14T15:00:23;7;6;5
58740;PMS7003;44512;53.046;18.604;2023-05-14T15:10:51;6;5;5
58740;PMS7003;44512;53.046;18.604;2023-05-14T15:21:20;6;5;5
58740;PMS7003;44512;53.046;18.604;2023-05-14T15:31:48;6;6;5
58740;PMS7003;44512;53.046;18.604;2023-05-14T15:42:16;8;6;6
58740;PMS7003;44512;53.046;18.604;2023-05-14T15:52:45;6;5;4
58740;PMS7003;44512;53.046;18.604;2023-05-14T16:03:13;3;3;3
58740;PMS7003;44512;53.046;18.604;2023-05-14T16:13:41;6;5;4
58740;PMS7003;44512;53.046;18.604;2023-05-14T16:24:10;6;5;4
58740;PMS7003;44512;53.046;18.604;2023-05-14T16:34:38;5;5;4
58740;PMS7003;44512;53.046;18.604;2023-05-14T16:45:07;8;6;6
58740;PMS7003;44512;53.046;18.604;2023-05-14T16:55:35;7;6;5
58740;PMS7003;44512;53.046;18.604;2023-05-14T17:06:03;6;6;5
58740;PMS7003;44512;53.046;18.604;2023-05-14T17:16:31;9;7;6
58740;PMS7003;44512;53.046;18.604;2023-05-14T17:27:00;9;8;7
58740;PMS7003;44512;53.046;18.604;2023-05-14T17:37:28;9;9;7
58740;PMS7003;44512;53.046;18.604;2023-05-14T17:47:56;7;7;6
58740;PMS7003;44512;53.046;18.604;2023-05-14T17:58:25;9;7;6
58740;PMS7003;44512;53.046;18.604;2023-05-14T18:08:53;10;9;7
58740;PMS7003;44512;53.046;18.604;2023-05-14T18:19:21;10;8;7
58740;PMS7003;44512;53.046;18.604;2023-05-14T18:29:50;10;9;8
58740;PMS7003;44512;53.046;18.604;2023-05-14T18:40:18;11;10;9
58740;PMS7003;44512;53.046;18.604;2023-05-14T18:50:46;9;9;8
58740;PMS7003;44512;53.046;18.604;2023-05-14T19:01:15;11;10;8
58740;PMS7003;44512;53.046;18.604;2023-05-14T19:11:43;11;10;8
58740;PMS7003;44512;53.046;18.604;2023-05-14T19:22:11;12;9;8
58740;PMS7003;44512;53.046;18.604;2023-05-14T19:32:40;12;11;8
58740;PMS7003;44512;53.046;18.604;2023-05-14T19:43:08;9;8;7
58740;PMS7003;44512;53.046;18.604;2023-05-14T19:53:37;12;11;9
58740;PMS7003;44512;53.046;18.604;2023-05-14T20:04:05;12;12;10
58740;PMS7003;44512;53.046;18.604;2023-05-14T20:14:33;13;11;10
58740;PMS7003;44512;53.046;18.604;2023-05-14T20:25:02;19;17;13
58740;PMS7003;44512;53.046;18.604;2023-05-14T20:35:30;19;16;12
58740;PMS7003;44512;53.046;18.604;2023-05-14T20:45:58;19;18;13
58740;PMS7003;44512;53.046;18.604;2023-05-14T20:56:27;19;16;13
58740;PMS7003;44512;53.046;18.604;2023-05-14T21:06:55;14;13;12
58740;PMS7003;44512;53.046;18.604;2023-05-14T21:17:23;16;14;11
58740;PMS7003;44512;53.046;18.604;2023-05-14T21:27:52;12;10;9
58740;PMS7003;44512;53.046;18.604;2023-05-14T21:38:20;16;14;11
58740;PMS7003;44512;53.046;18.604;2023-05-14T21:48:49;14;13;11
58740;PMS7003;44512;53.046;18.604;2023-05-14T21:59:17;12;11;8
58740;PMS7003;44512;53.046;18.604;2023-05-14T22:09:45;15;13;10
58740;PMS7003;44512;53.046;18.604;2023-05-14T22:20:14;15;13;10
58740;PMS7003;44512;53.046;18.604;2023-05-14T22:30:42;19;15;12
58740;PMS7003;44512;53.046;18.604;2023-05-14T22:41:11;15;13;10
58740;PMS7003;44512;53.046;18.604;2023-05-14T22:51:39;14;14;11
58740;PMS7003;44512;53.046;18.604;2023-05-14T23:02:07;14;13;10
58740;PMS7003;44512;53.046;18.604;2023-05-14T23:12:35;14;13;10
58740;PMS7003;44512;53.046;18.604;2023-05-14T23:23:04;14;11;9
58740;PMS7003;44512;53.046;18.604;2023-05-14T23:33:32;12;10;8
58740;PMS7003;44512;53.046;18.604;2023-05-14T23:44:01;15;13;10
58740;PMS7003;44512;53.046;18.604;2023-05-14T23:54:29;16;12;9
